sensor_id;sensor_type;location;lat;lon;timestamp;pressure;altitude;pressure_sealevel;temperature;humidity
58467;BME280;44255;49.244;7.726;2023-04-10T03:31:54;98828.31;;;-4.41;75.23
58467;BME280;44255;49.244;7.726;2023-04-10T03:34:19;98835.31;;;-4.52;75.48
58467;BME280;44255;49.244;7.726;2023-04-10T03:36:45;98826.56;;;-4.59;75.60
58467;BME280;44255;49.244;7.726;2023-04-10T03:39:10;98833.59;;;-4.55;75.94
58467;BME280;44255;49.244;7.726;2023-04-10T03:41:36;98831.78;;;-4.19;74.46
58467;BME280;44255;49.244;7.726;2023-04-10T03:44:01;98833.56;;;-4.77;75.43
58467;BME280;44255;49.244;7.726;2023-04-10T03:46:27;98844.13;;;-4.74;76.25
58467;BME280;44255;49.244;7.726;2023-04-10T03:48:53;98828.31;;;-4.83;76.75
58467;BME280;44255;49.244;7.726;2023-04-10T03:51:18;98829.19;;;-4.89;76.95
58467;BME280;44255;49.244;7.726;2023-04-10T03:53:44;98832.72;;;-4.74;76.26
58467;BME280;44255;49.244;7.726;2023-04-10T03:56:09;98830.94;;;-4.88;76.25
58467;BME280;44255;49.244;7.726;2023-04-10T03:58:34;98836.19;;;-4.84;76.43
58467;BME280;44255;49.244;7.726;2023-04-10T04:01:00;98830.09;;;-4.77;76.21
58467;BME280;44255;49.244;7.726;2023-04-10T04:03:25;98826.56;;;-4.90;76.12
58467;BME280;44255;49.244;7.726;2023-04-10T04:05:50;98831.84;;;-4.87;76.29
58467;BME280;44255;49.244;7.726;2023-04-10T04:08:18;98835.31;;;-4.97;76.23
58467;BME280;44255;49.244;7.726;2023-04-10T04:10:44;98828.34;;;-4.70;75.75
58467;BME280;44255;49.244;7.726;2023-04-10T04:13:09;98827.44;;;-4.69;75.39
58467;BME280;44255;49.244;7.726;2023-04-10T04:15:34;98828.31;;;-4.94;76.01
58467;BME280;44255;49.244;7.726;2023-04-10T04:18:00;98830.06;;;-4.83;76.65
58467;BME280;44255;49.244;7.726;2023-04-10T04:20:25;98826.53;;;-4.96;76.18
58467;BME280;44255;49.244;7.726;2023-04-10T04:22:50;98828.31;;;-4.98;76.84
58467;BME280;44255;49.244;7.726;2023-04-10T04:25:15;98834.41;;;-5.10;76.97
58467;BME280;44255;49.244;7.726;2023-04-10T04:27:42;98827.44;;;-5.07;77.53
58467;BME280;44255;49.244;7.726;2023-04-10T04:30:07;98830.06;;;-4.93;76.27
58467;BME280;44255;49.244;7.726;2023-04-10T04:32:33;98833.56;;;-4.77;75.61
58467;BME280;44255;49.244;7.726;2023-04-10T04:34:58;98838.81;;;-5.12;77.27
58467;BME280;44255;49.244;7.726;2023-04-10T04:37:23;98837.00;;;-5.23;77.82
58467;BME280;44255;49.244;7.726;2023-04-10T04:39:49;98839.66;;;-5.20;77.42
58467;BME280;44255;49.244;7.726;2023-04-10T04:42:14;98838.78;;;-5.23;77.76
58467;BME280;44255;49.244;7.726;2023-04-10T04:44:39;98843.25;;;-4.73;76.13
58467;BME280;44255;49.244;7.726;2023-04-10T04:47:04;98833.59;;;-4.89;76.46
58467;BME280;44255;49.244;7.726;2023-04-10T04:49:30;98836.19;;;-5.02;76.65
58467;BME280;44255;49.244;7.726;2023-04-10T04:51:55;98839.69;;;-4.99;76.18
58467;BME280;44255;49.244;7.726;2023-04-10T04:54:20;98836.16;;;-5.14;76.77
58467;BME280;44255;49.244;7.726;2023-04-10T04:56:45;98837.91;;;-5.13;77.36
58467;BME280;44255;49.244;7.726;2023-04-10T04:59:11;98829.19;;;-4.98;76.55
58467;BME280;44255;49.244;7.726;2023-04-10T05:01:36;98831.81;;;-4.99;76.56
58467;BME280;44255;49.244;7.726;2023-04-10T05:04:01;98835.31;;;-4.60;75.25
58467;BME280;44255;49.244;7.726;2023-04-10T05:06:26;98827.44;;;-4.74;75.27
58467;BME280;44255;49.244;7.726;2023-04-10T05:08:52;98824.81;;;-4.85;76.12
58467;BME280;44255;49.244;7.726;2023-04-10T05:11:17;98823.03;;;-5.14;77.63
58467;BME280;44255;49.244;7.726;2023-04-10T05:13:42;98821.25;;;-5.20;77.23
58467;BME280;44255;49.244;7.726;2023-04-10T05:16:08;98825.63;;;-5.34;77.70
58467;BME280;44255;49.244;7.726;2023-04-10T05:18:34;98818.66;;;-5.10;77.49
58467;BME280;44255;49.244;7.726;2023-04-10T05:20:59;98821.22;;;-5.27;77.68
58467;BME280;44255;49.244;7.726;2023-04-10T05:23:24;98826.53;;;-5.15;77.02
58467;BME280;44255;49.244;7.726;2023-04-10T05:25:49;98822.13;;;-5.25;77.29
58467;BME280;44255;49.244;7.726;2023-04-10T05:28:15;98824.78;;;-5.25;76.98
58467;BME280;44255;49.244;7.726;2023-04-10T05:30:40;98823.91;;;-4.99;77.40
58467;BME280;44255;49.244;7.726;2023-04-10T05:33:05;98825.69;;;-5.02;77.14
58467;BME280;44255;49.244;7.726;2023-04-10T05:35:31;98820.41;;;-5.06;77.05
58467;BME280;44255;49.244;7.726;2023-04-10T05:37:56;98823.03;;;-5.05;76.88
58467;BME280;44255;49.244;7.726;2023-04-10T05:40:23;98824.81;;;-4.90;76.76
58467;BME280;44255;49.244;7.726;2023-04-10T05:42:48;98825.69;;;-4.94;76.77
58467;BME280;44255;49.244;7.726;2023-04-10T05:45:13;98827.44;;;-4.93;76.48
58467;BME280;44255;49.244;7.726;2023-04-10T05:47:39;98826.56;;;-5.09;76.99
58467;BME280;44255;49.244;7.726;2023-04-10T05:50:04;98834.41;;;-5.12;77.39
58467;BME280;44255;49.244;7.726;2023-04-10T05:52:30;98826.53;;;-5.07;77.31
58467;BME280;44255;49.244;7.726;2023-04-10T05:54:55;98834.44;;;-5.09;77.66
58467;BME280;44255;49.244;7.726;2023-04-10T05:57:20;98824.81;;;-4.99;77.26
58467;BME280;44255;49.244;7.726;2023-04-10T05:59:45;98828.31;;;-4.88;76.92
58467;BME280;44255;49.244;7.726;2023-04-10T06:02:10;98823.94;;;-4.76;76.41
58467;BME280;44255;49.244;7.726;2023-04-10T06:04:36;98827.44;;;-4.76;76.83
58467;BME280;44255;49.244;7.726;2023-04-10T06:07:01;98824.81;;;-4.88;77.51
58467;BME280;44255;49.244;7.726;2023-04-10T06:09:26;98835.34;;;-4.80;77.03
58467;BME280;44255;49.244;7.726;2023-04-10T06:11:51;98834.47;;;-4.48;77.46
58467;BME280;44255;49.244;7.726;2023-04-10T06:14:18;98834.44;;;-4.44;76.49
58467;BME280;44255;49.244;7.726;2023-04-10T06:16:44;98824.78;;;-4.32;76.63
58467;BME280;44255;49.244;7.726;2023-04-10T06:19:09;98831.78;;;-4.25;76.19
58467;BME280;44255;49.244;7.726;2023-04-10T06:21:35;98816.84;;;-4.13;76.59
58467;BME280;44255;49.244;7.726;2023-04-10T06:24:00;98828.22;;;-3.96;75.84
58467;BME280;44255;49.244;7.726;2023-04-10T06:26:25;98822.09;;;-4.03;76.08
58467;BME280;44255;49.244;7.726;2023-04-10T06:28:51;98813.25;;;-3.78;76.79
58467;BME280;44255;49.244;7.726;2023-04-10T06:31:18;98804.41;;;-3.63;76.11
58467;BME280;44255;49.244;7.726;2023-04-10T06:33:46;98810.47;;;-3.47;76.17
58467;BME280;44255;49.244;7.726;2023-04-10T06:36:11;98796.38;;;-3.37;75.81
58467;BME280;44255;49.244;7.726;2023-04-10T06:38:37;98801.66;;;-3.38;76.05
58467;BME280;44255;49.244;7.726;2023-04-10T06:41:04;98798.91;;;-3.20;76.21
58467;BME280;44255;49.244;7.726;2023-04-10T06:43:29;98792.53;;;-2.92;75.52
58467;BME280;44255;49.244;7.726;2023-04-10T06:45:56;98792.47;;;-2.81;74.74
58467;BME280;44255;49.244;7.726;2023-04-10T06:48:21;98791.50;;;-2.71;74.95
58467;BME280;44255;49.244;7.726;2023-04-10T06:50:46;98793.06;;;-2.47;74.09
58467;BME280;44255;49.244;7.726;2023-04-10T06:53:11;98789.44;;;-2.38;73.91
58467;BME280;44255;49.244;7.726;2023-04-10T06:55:37;98801.66;;;-2.27;74.40
58467;BME280;44255;49.244;7.726;2023-04-10T06:58:02;98795.31;;;-2.09;74.44
58467;BME280;44255;49.244;7.726;2023-04-10T07:00:27;98796.94;;;-1.94;73.86
58467;BME280;44255;49.244;7.726;2023-04-10T07:02:52;98788.88;;;-1.80;73.37
58467;BME280;44255;49.244;7.726;2023-04-10T07:05:18;98793.03;;;-1.62;73.54
58467;BME280;44255;49.244;7.726;2023-04-10T07:07:43;98795.72;;;-1.64;73.88
58467;BME280;44255;49.244;7.726;2023-04-10T07:10:08;98797.06;;;-1.32;74.02
58467;BME280;44255;49.244;7.726;2023-04-10T07:12:34;98790.59;;;-1.12;73.93
58467;BME280;44255;49.244;7.726;2023-04-10T07:15:00;98792.13;;;-0.98;73.30
58467;BME280;44255;49.244;7.726;2023-04-10T07:17:25;98798.72;;;-0.68;72.90
58467;BME280;44255;49.244;7.726;2023-04-10T07:19:50;98785.19;;;-0.51;73.15
58467;BME280;44255;49.244;7.726;2023-04-10T07:22:16;98781.38;;;-0.34;72.03
58467;BME280;44255;49.244;7.726;2023-04-10T07:24:41;98767.63;;;-0.06;72.42
58467;BME280;44255;49.244;7.726;2023-04-10T07:27:07;98768.97;;;0.15;69.88
58467;BME280;44255;49.244;7.726;2023-04-10T07:29:32;98759.66;;;0.36;66.96
58467;BME280;44255;49.244;7.726;2023-04-10T07:31:57;98753.72;;;0.67;64.72
58467;BME280;44255;49.244;7.726;2023-04-10T07:34:23;98754.09;;;0.90;61.61
58467;BME280;44255;49.244;7.726;2023-04-10T07:36:50;98754.38;;;1.15;60.79
58467;BME280;44255;49.244;7.726;2023-04-10T07:39:15;98747.78;;;1.32;58.51
58467;BME280;44255;49.244;7.726;2023-04-10T07:41:40;98755.31;;;1.49;58.15
58467;BME280;44255;49.244;7.726;2023-04-10T07:44:06;98750.41;;;1.66;55.97
58467;BME280;44255;49.244;7.726;2023-04-10T07:46:31;98760.63;;;1.82;55.04
58467;BME280;44255;49.244;7.726;2023-04-10T07:48:56;98750.56;;;1.95;54.56
58467;BME280;44255;49.244;7.726;2023-04-10T07:51:22;98755.34;;;2.14;54.79
58467;BME280;44255;49.244;7.726;2023-04-10T07:53:47;98757.81;;;2.20;53.88
58467;BME280;44255;49.244;7.726;2023-04-10T07:56:17;98755.53;;;2.37;53.46
58467;BME280;44255;49.244;7.726;2023-04-10T07:58:43;98755.31;;;2.47;51.92
58467;BME280;44255;49.244;7.726;2023-04-10T08:01:08;98748.72;;;2.59;51.83
58467;BME280;44255;49.244;7.726;2023-04-10T08:03:41;98753.81;;;2.66;52.80
58467;BME280;44255;49.244;7.726;2023-04-10T08:06:07;98744.72;;;2.74;51.13
58467;BME280;44255;49.244;7.726;2023-04-10T08:08:37;98746.91;;;2.89;49.40
58467;BME280;44255;49.244;7.726;2023-04-10T08:11:07;98744.03;;;2.95;49.64
58467;BME280;44255;49.244;7.726;2023-04-10T08:13:32;98742.78;;;3.07;48.00
58467;BME280;44255;49.244;7.726;2023-04-10T08:15:57;98744.28;;;3.16;47.56
58467;BME280;44255;49.244;7.726;2023-04-10T08:18:23;98744.97;;;3.21;47.08
58467;BME280;44255;49.244;7.726;2023-04-10T08:20:48;98732.38;;;3.27;47.14
58467;BME280;44255;49.244;7.726;2023-04-10T08:23:13;98750.19;;;3.24;45.84
58467;BME280;44255;49.244;7.726;2023-04-10T08:25:38;98733.09;;;3.32;45.78
58467;BME280;44255;49.244;7.726;2023-04-10T08:28:04;98738.91;;;3.43;46.95
58467;BME280;44255;49.244;7.726;2023-04-10T08:30:29;98737.69;;;3.53;45.58
58467;BME280;44255;49.244;7.726;2023-04-10T08:32:54;98733.06;;;3.59;46.49
58467;BME280;44255;49.244;7.726;2023-04-10T08:35:20;98733.72;;;3.65;45.86
58467;BME280;44255;49.244;7.726;2023-04-10T08:37:45;98734.69;;;3.63;46.08
58467;BME280;44255;49.244;7.726;2023-04-10T08:40:11;98728.28;;;3.69;45.78
58467;BME280;44255;49.244;7.726;2023-04-10T08:42:36;98724.91;;;3.89;46.55
58467;BME280;44255;49.244;7.726;2023-04-10T08:45:02;98723.28;;;4.10;45.77
58467;BME280;44255;49.244;7.726;2023-04-10T08:47:27;98729.13;;;4.20;45.45
58467;BME280;44255;49.244;7.726;2023-04-10T08:49:55;98720.66;;;4.32;45.33
58467;BME280;44255;49.244;7.726;2023-04-10T08:52:24;98727.28;;;4.22;41.52
58467;BME280;44255;49.244;7.726;2023-04-10T08:54:52;98720.06;;;4.48;44.20
58467;BME280;44255;49.244;7.726;2023-04-10T08:57:19;98718.91;;;4.55;43.54
58467;BME280;44255;49.244;7.726;2023-04-10T08:59:46;98714.38;;;4.57;43.45
58467;BME280;44255;49.244;7.726;2023-04-10T09:02:11;98713.25;;;4.63;44.94
58467;BME280;44255;49.244;7.726;2023-04-10T09:04:37;98707.63;;;4.71;44.04
58467;BME280;44255;49.244;7.726;2023-04-10T09:07:02;98702.81;;;4.79;43.82
58467;BME280;44255;49.244;7.726;2023-04-10T09:09:27;98698.06;;;4.87;43.88
58467;BME280;44255;49.244;7.726;2023-04-10T09:11:57;98702.06;;;4.98;43.99
58467;BME280;44255;49.244;7.726;2023-04-10T09:14:32;98712.56;;;5.02;44.76
58467;BME280;44255;49.244;7.726;2023-04-10T09:17:20;98702.03;;;4.99;43.42
58467;BME280;44255;49.244;7.726;2023-04-10T09:19:51;98696.22;;;5.10;43.53
58467;BME280;44255;49.244;7.726;2023-04-10T09:22:17;98699.34;;;5.21;44.30
58467;BME280;44255;49.244;7.726;2023-04-10T09:24:45;98693.91;;;5.23;42.89
58467;BME280;44255;49.244;7.726;2023-04-10T09:27:10;98692.13;;;5.23;41.43
58467;BME280;44255;49.244;7.726;2023-04-10T09:29:51;98690.13;;;5.49;44.29
58467;BME280;44255;49.244;7.726;2023-04-10T09:35:00;98669.97;;;5.63;44.93
58467;BME280;44255;49.244;7.726;2023-04-10T09:37:32;98670.09;;;5.60;43.46
58467;BME280;44255;49.244;7.726;2023-04-10T09:39:58;98668.09;;;5.65;43.40
58467;BME280;44255;49.244;7.726;2023-04-10T09:42:35;98662.34;;;5.74;42.64
58467;BME280;44255;49.244;7.726;2023-04-10T09:45:03;98665.81;;;5.76;40.42
58467;BME280;44255;49.244;7.726;2023-04-10T09:47:29;98657.28;;;5.87;38.99
58467;BME280;44255;49.244;7.726;2023-04-10T09:49:56;98653.84;;;6.04;40.65
58467;BME280;44255;49.244;7.726;2023-04-10T09:52:34;98653.06;;;6.21;42.39
58467;BME280;44255;49.244;7.726;2023-04-10T09:55:03;98639.94;;;6.34;41.55
58467;BME280;44255;49.244;7.726;2023-04-10T09:57:30;98645.03;;;6.41;40.63
58467;BME280;44255;49.244;7.726;2023-04-10T09:59:58;98645.28;;;6.34;38.63
58467;BME280;44255;49.244;7.726;2023-04-10T10:02:25;98642.97;;;6.46;38.25
58467;BME280;44255;49.244;7.726;2023-04-10T10:04:52;98640.94;;;6.51;38.39
58467;BME280;44255;49.244;7.726;2023-04-10T10:07:19;98638.47;;;6.65;38.44
58467;BME280;44255;49.244;7.726;2023-04-10T10:09:45;98636.16;;;6.77;38.88
58467;BME280;44255;49.244;7.726;2023-04-10T10:12:12;98620.34;;;6.90;38.01
58467;BME280;44255;49.244;7.726;2023-04-10T10:14:49;98618.00;;;7.01;37.84
58467;BME280;44255;49.244;7.726;2023-04-10T10:17:18;98612.53;;;7.03;37.57
58467;BME280;44255;49.244;7.726;2023-04-10T10:19:53;98611.47;;;7.07;37.08
58467;BME280;44255;49.244;7.726;2023-04-10T10:22:21;98617.66;;;7.07;34.58
58467;BME280;44255;49.244;7.726;2023-04-10T10:24:49;98614.53;;;6.99;34.35
58467;BME280;44255;49.244;7.726;2023-04-10T10:27:16;98608.28;;;6.99;33.70
58467;BME280;44255;49.244;7.726;2023-04-10T10:29:45;98600.97;;;7.20;35.45
58467;BME280;44255;49.244;7.726;2023-04-10T10:32:13;98608.59;;;7.28;35.67
58467;BME280;44255;49.244;7.726;2023-04-10T10:34:39;98604.09;;;7.28;34.72
58467;BME280;44255;49.244;7.726;2023-04-10T10:37:05;98609.06;;;7.18;35.46
58467;BME280;44255;49.244;7.726;2023-04-10T10:40:00;98610.88;;;7.35;35.87
58467;BME280;44255;49.244;7.726;2023-04-10T10:42:35;98603.84;;;7.33;34.91
58467;BME280;44255;49.244;7.726;2023-04-10T10:45:16;98604.84;;;7.48;35.63
58467;BME280;44255;49.244;7.726;2023-04-10T10:47:49;98592.47;;;7.63;34.20
58467;BME280;44255;49.244;7.726;2023-04-10T10:50:15;98598.00;;;7.76;34.06
58467;BME280;44255;49.244;7.726;2023-04-10T10:52:50;98585.13;;;7.83;34.66
58467;BME280;44255;49.244;7.726;2023-04-10T10:58:00;98580.84;;;8.12;33.52
58467;BME280;44255;49.244;7.726;2023-04-10T11:05:55;98574.63;;;8.28;34.28
58467;BME280;44255;49.244;7.726;2023-04-10T11:13:38;98575.56;;;7.95;31.83
58467;BME280;44255;49.244;7.726;2023-04-10T11:16:05;98579.56;;;8.03;32.27
58467;BME280;44255;49.244;7.726;2023-04-10T11:21:09;98577.28;;;8.60;31.42
58467;BME280;44255;49.244;7.726;2023-04-10T11:23:37;98571.00;;;8.75;31.21
58467;BME280;44255;49.244;7.726;2023-04-10T11:26:03;98573.91;;;8.56;30.72
58467;BME280;44255;49.244;7.726;2023-04-10T11:31:18;98541.69;;;9.17;31.71
58467;BME280;44255;49.244;7.726;2023-04-10T11:36:22;98547.22;;;8.53;30.78
58467;BME280;44255;49.244;7.726;2023-04-10T11:39:01;98536.06;;;9.06;30.68
58467;BME280;44255;49.244;7.726;2023-04-10T11:41:35;98539.91;;;9.02;30.80
58467;BME280;44255;49.244;7.726;2023-04-10T11:44:02;98534.19;;;9.23;30.71
58467;BME280;44255;49.244;7.726;2023-04-10T11:46:28;98528.13;;;9.33;29.66
58467;BME280;44255;49.244;7.726;2023-04-10T11:49:00;98532.88;;;9.30;30.58
58467;BME280;44255;49.244;7.726;2023-04-10T11:51:26;98532.47;;;9.65;30.42
58467;BME280;44255;49.244;7.726;2023-04-10T11:56:38;98514.78;;;9.61;29.74
58467;BME280;44255;49.244;7.726;2023-04-10T11:59:04;98519.44;;;10.15;29.57
58467;BME280;44255;49.244;7.726;2023-04-10T12:01:35;98529.66;;;10.38;28.67
58467;BME280;44255;49.244;7.726;2023-04-10T12:04:01;98537.59;;;9.97;28.39
58467;BME280;44255;49.244;7.726;2023-04-10T12:06:26;98520.94;;;10.19;28.46
58467;BME280;44255;49.244;7.726;2023-04-10T12:08:52;98523.78;;;10.03;29.28
58467;BME280;44255;49.244;7.726;2023-04-10T12:11:23;98524.41;;;9.65;30.36
58467;BME280;44255;49.244;7.726;2023-04-10T12:13:55;98513.25;;;10.81;29.38
58467;BME280;44255;49.244;7.726;2023-04-10T12:16:21;98506.94;;;10.95;28.81
58467;BME280;44255;49.244;7.726;2023-04-10T12:18:48;98505.97;;;10.56;30.35
58467;BME280;44255;49.244;7.726;2023-04-10T12:21:13;98493.47;;;11.34;29.93
58467;BME280;44255;49.244;7.726;2023-04-10T12:23:38;98487.59;;;11.79;28.96
58467;BME280;44255;49.244;7.726;2023-04-10T12:26:06;98508.22;;;10.89;28.91
58467;BME280;44255;49.244;7.726;2023-04-10T12:28:32;98498.63;;;10.85;29.31
58467;BME280;44255;49.244;7.726;2023-04-10T12:30:58;98489.31;;;10.63;29.34
58467;BME280;44255;49.244;7.726;2023-04-10T12:33:24;98481.56;;;10.31;30.25
58467;BME280;44255;49.244;7.726;2023-04-10T12:35:50;98492.84;;;10.51;30.13
58467;BME280;44255;49.244;7.726;2023-04-10T12:38:42;98493.16;;;10.19;29.90
58467;BME280;44255;49.244;7.726;2023-04-10T12:41:09;98475.06;;;10.61;30.19
58467;BME280;44255;49.244;7.726;2023-04-10T12:43:36;98479.16;;;11.21;30.12
58467;BME280;44255;49.244;7.726;2023-04-10T12:46:02;98472.25;;;11.29;30.14
58467;BME280;44255;49.244;7.726;2023-04-10T12:48:28;98483.03;;;11.29;30.01
58467;BME280;44255;49.244;7.726;2023-04-10T12:50:54;98480.75;;;10.44;30.00
58467;BME280;44255;49.244;7.726;2023-04-10T12:53:20;98461.13;;;10.42;31.85
58467;BME280;44255;49.244;7.726;2023-04-10T12:56:04;98462.47;;;10.49;30.00
58467;BME280;44255;49.244;7.726;2023-04-10T12:58:33;98493.13;;;9.91;29.25
58467;BME280;44255;49.244;7.726;2023-04-10T13:01:03;98455.22;;;10.50;29.00
58467;BME280;44255;49.244;7.726;2023-04-10T13:03:29;98450.44;;;11.07;29.07
58467;BME280;44255;49.244;7.726;2023-04-10T13:05:54;98438.59;;;11.59;29.96
58467;BME280;44255;49.244;7.726;2023-04-10T13:08:20;98436.97;;;11.70;29.39
58467;BME280;44255;49.244;7.726;2023-04-10T13:10:46;98438.50;;;11.98;28.72
58467;BME280;44255;49.244;7.726;2023-04-10T13:13:12;98437.22;;;11.91;28.57
58467;BME280;44255;49.244;7.726;2023-04-10T13:15:38;98437.75;;;11.59;28.59
58467;BME280;44255;49.244;7.726;2023-04-10T13:18:03;98437.44;;;11.64;27.46
58467;BME280;44255;49.244;7.726;2023-04-10T13:20:39;98436.78;;;11.60;28.07
58467;BME280;44255;49.244;7.726;2023-04-10T13:23:05;98425.97;;;11.23;26.72
58467;BME280;44255;49.244;7.726;2023-04-10T13:25:35;98426.53;;;11.52;27.61
58467;BME280;44255;49.244;7.726;2023-04-10T13:28:01;98431.78;;;10.90;26.89
58467;BME280;44255;49.244;7.726;2023-04-10T13:30:29;98429.59;;;11.35;26.14
58467;BME280;44255;49.244;7.726;2023-04-10T13:32:55;98415.50;;;11.05;26.59
58467;BME280;44255;49.244;7.726;2023-04-10T13:35:20;98417.19;;;10.80;26.12
58467;BME280;44255;49.244;7.726;2023-04-10T13:37:46;98418.28;;;10.90;26.44
58467;BME280;44255;49.244;7.726;2023-04-10T13:40:11;98407.50;;;11.16;26.53
58467;BME280;44255;49.244;7.726;2023-04-10T13:42:36;98401.09;;;11.43;25.75
58467;BME280;44255;49.244;7.726;2023-04-10T13:45:02;98402.56;;;11.98;25.89
58467;BME280;44255;49.244;7.726;2023-04-10T13:47:27;98402.22;;;11.65;25.89
58467;BME280;44255;49.244;7.726;2023-04-10T13:49:53;98400.19;;;11.18;25.85
58467;BME280;44255;49.244;7.726;2023-04-10T13:52:18;98406.88;;;11.00;25.45
58467;BME280;44255;49.244;7.726;2023-04-10T13:54:43;98399.19;;;10.94;25.41
58467;BME280;44255;49.244;7.726;2023-04-10T13:57:08;98389.81;;;10.73;25.38
58467;BME280;44255;49.244;7.726;2023-04-10T13:59:34;98397.34;;;10.81;25.37
58467;BME280;44255;49.244;7.726;2023-04-10T14:01:59;98390.44;;;11.29;25.57
58467;BME280;44255;49.244;7.726;2023-04-10T14:04:24;98391.81;;;11.72;26.46
58467;BME280;44255;49.244;7.726;2023-04-10T14:06:49;98385.88;;;12.04;25.33
58467;BME280;44255;49.244;7.726;2023-04-10T14:09:17;98389.16;;;11.96;24.89
58467;BME280;44255;49.244;7.726;2023-04-10T14:11:42;98383.41;;;12.25;24.27
58467;BME280;44255;49.244;7.726;2023-04-10T14:14:07;98381.56;;;12.73;24.85
58467;BME280;44255;49.244;7.726;2023-04-10T14:16:33;98364.09;;;12.77;24.51
58467;BME280;44255;49.244;7.726;2023-04-10T14:18:58;98370.53;;;12.40;24.52
58467;BME280;44255;49.244;7.726;2023-04-10T14:21:23;98365.13;;;11.56;24.79
58467;BME280;44255;49.244;7.726;2023-04-10T14:23:48;98353.75;;;11.64;25.19
58467;BME280;44255;49.244;7.726;2023-04-10T14:26:14;98362.44;;;10.93;26.01
58467;BME280;44255;49.244;7.726;2023-04-10T14:28:39;98350.56;;;11.08;25.46
58467;BME280;44255;49.244;7.726;2023-04-10T14:31:05;98352.63;;;11.17;26.83
58467;BME280;44255;49.244;7.726;2023-04-10T14:33:32;98343.84;;;11.27;25.91
58467;BME280;44255;49.244;7.726;2023-04-10T14:35:57;98331.47;;;11.11;26.36
58467;BME280;44255;49.244;7.726;2023-04-10T14:38:22;98332.53;;;10.96;26.34
58467;BME280;44255;49.244;7.726;2023-04-10T14:40:47;98338.53;;;10.49;27.04
58467;BME280;44255;49.244;7.726;2023-04-10T14:43:14;98325.34;;;10.83;27.21
58467;BME280;44255;49.244;7.726;2023-04-10T14:45:39;98323.31;;;10.22;27.46
58467;BME280;44255;49.244;7.726;2023-04-10T14:48:04;98322.66;;;10.70;27.83
58467;BME280;44255;49.244;7.726;2023-04-10T14:50:30;98308.41;;;10.94;27.85
58467;BME280;44255;49.244;7.726;2023-04-10T14:52:56;98302.13;;;10.94;28.00
58467;BME280;44255;49.244;7.726;2023-04-10T14:55:23;98311.38;;;10.52;28.18
58467;BME280;44255;49.244;7.726;2023-04-10T14:57:49;98306.41;;;10.20;28.86
58467;BME280;44255;49.244;7.726;2023-04-10T15:00:14;98294.75;;;10.07;29.17
58467;BME280;44255;49.244;7.726;2023-04-10T15:02:40;98292.22;;;9.90;29.81
58467;BME280;44255;49.244;7.726;2023-04-10T15:05:06;98302.94;;;9.77;29.94
58467;BME280;44255;49.244;7.726;2023-04-10T15:07:31;98292.06;;;9.79;30.24
58467;BME280;44255;49.244;7.726;2023-04-10T15:09:57;98294.38;;;9.98;30.31
58467;BME280;44255;49.244;7.726;2023-04-10T15:12:22;98287.16;;;9.99;30.23
58467;BME280;44255;49.244;7.726;2023-04-10T15:14:49;98281.06;;;9.69;30.84
58467;BME280;44255;49.244;7.726;2023-04-10T15:17:14;98281.06;;;9.69;31.20
58467;BME280;44255;49.244;7.726;2023-04-10T15:19:40;98273.19;;;10.07;30.57
58467;BME280;44255;49.244;7.726;2023-04-10T15:22:05;98267.16;;;10.03;30.72
58467;BME280;44255;49.244;7.726;2023-04-10T15:24:30;98271.84;;;9.86;30.39
58467;BME280;44255;49.244;7.726;2023-04-10T15:26:55;98274.19;;;9.65;31.48
58467;BME280;44255;49.244;7.726;2023-04-10T15:29:21;98279.19;;;9.57;31.44
58467;BME280;44255;49.244;7.726;2023-04-10T15:31:47;98277.66;;;9.12;32.14
58467;BME280;44255;49.244;7.726;2023-04-10T15:34:12;98268.44;;;9.57;32.03
58467;BME280;44255;49.244;7.726;2023-04-10T15:36:37;98266.38;;;9.47;32.45
58467;BME280;44255;49.244;7.726;2023-04-10T15:39:03;98261.47;;;9.67;32.27
58467;BME280;44255;49.244;7.726;2023-04-10T15:41:28;98241.22;;;9.61;32.23
58467;BME280;44255;49.244;7.726;2023-04-10T15:43:55;98233.59;;;9.68;32.97
58467;BME280;44255;49.244;7.726;2023-04-10T15:46:21;98236.13;;;9.44;32.97
58467;BME280;44255;49.244;7.726;2023-04-10T15:48:46;98231.97;;;9.53;32.94
58467;BME280;44255;49.244;7.726;2023-04-10T15:51:11;98228.50;;;9.51;33.00
58467;BME280;44255;49.244;7.726;2023-04-10T15:53:36;98228.16;;;9.42;33.11
58467;BME280;44255;49.244;7.726;2023-04-10T15:56:06;98230.69;;;9.58;32.98
58467;BME280;44255;49.244;7.726;2023-04-10T15:58:32;98235.88;;;9.34;33.46
58467;BME280;44255;49.244;7.726;2023-04-10T16:00:57;98237.81;;;9.32;34.17
58467;BME280;44255;49.244;7.726;2023-04-10T16:03:22;98232.25;;;9.48;34.10
58467;BME280;44255;49.244;7.726;2023-04-10T16:05:47;98239.13;;;9.39;33.79
58467;BME280;44255;49.244;7.726;2023-04-10T16:08:13;98246.63;;;9.74;34.03
58467;BME280;44255;49.244;7.726;2023-04-10T16:10:38;98240.06;;;9.78;34.01
58467;BME280;44255;49.244;7.726;2023-04-10T16:13:03;98252.97;;;9.60;34.15
58467;BME280;44255;49.244;7.726;2023-04-10T16:15:33;98239.47;;;9.47;34.88
58467;BME280;44255;49.244;7.726;2023-04-10T16:17:58;98235.16;;;9.45;34.66
58467;BME280;44255;49.244;7.726;2023-04-10T16:20:23;98232.81;;;9.53;35.34
58467;BME280;44255;49.244;7.726;2023-04-10T16:22:49;98228.28;;;9.41;34.95
58467;BME280;44255;49.244;7.726;2023-04-10T16:25:14;98227.31;;;9.14;35.88
58467;BME280;44255;49.244;7.726;2023-04-10T16:27:39;98216.19;;;9.06;36.03
58467;BME280;44255;49.244;7.726;2023-04-10T16:30:05;98241.22;;;8.79;36.50
58467;BME280;44255;49.244;7.726;2023-04-10T16:32:32;98233.03;;;8.81;36.56
58467;BME280;44255;49.244;7.726;2023-04-10T16:34:57;98235.59;;;8.97;36.93
58467;BME280;44255;49.244;7.726;2023-04-10T16:37:23;98233.75;;;8.97;36.63
58467;BME280;44255;49.244;7.726;2023-04-10T16:39:48;98234.63;;;8.98;36.84
58467;BME280;44255;49.244;7.726;2023-04-10T16:42:13;98237.16;;;8.86;37.61
58467;BME280;44255;49.244;7.726;2023-04-10T16:44:38;98241.66;;;8.86;37.75
58467;BME280;44255;49.244;7.726;2023-04-10T16:47:04;98234.75;;;8.82;38.03
58467;BME280;44255;49.244;7.726;2023-04-10T16:49:29;98231.47;;;8.91;37.98
58467;BME280;44255;49.244;7.726;2023-04-10T16:51:55;98225.94;;;8.80;38.59
58467;BME280;44255;49.244;7.726;2023-04-10T16:54:20;98213.53;;;8.77;39.16
58467;BME280;44255;49.244;7.726;2023-04-10T16:56:45;98205.59;;;8.75;38.55
58467;BME280;44255;49.244;7.726;2023-04-10T16:59:11;98214.09;;;8.55;39.43